sensor_id;sensor_type;location;lat;lon;timestamp;P1;durP1;ratioP1;P2;durP2;ratioP2
24483;SDS011;12643;51.620;7.548;2024-03-23T00:54:48;18.92;;;4.47;;
24483;SDS011;12643;51.620;7.548;2024-03-23T00:57:15;18.80;;;5.20;;
24483;SDS011;12643;51.620;7.548;2024-03-23T00:59:43;19.35;;;4.65;;
24483;SDS011;12643;51.620;7.548;2024-03-23T01:02:10;15.25;;;4.22;;
24483;SDS011;12643;51.620;7.548;2024-03-23T01:04:37;17.63;;;3.92;;
24483;SDS011;12643;51.620;7.548;2024-03-23T01:07:04;21.70;;;4.35;;
24483;SDS011;12643;51.620;7.548;2024-03-23T01:09:32;16.42;;;4.72;;
24483;SDS011;12643;51.620;7.548;2024-03-23T01:12:00;16.98;;;4.05;;
24483;SDS011;12643;51.620;7.548;2024-03-23T01:14:29;13.88;;;4.35;;
24483;SDS011;12643;51.620;7.548;2024-03-23T01:16:55;14.60;;;4.25;;
24483;SDS011;12643;51.620;7.548;2024-03-23T01:19:23;18.92;;;5.13;;
24483;SDS011;12643;51.620;7.548;2024-03-23T01:21:50;13.80;;;4.63;;
24483;SDS011;12643;51.620;7.548;2024-03-23T01:24:18;16.77;;;3.97;;
24483;SDS011;12643;51.620;7.548;2024-03-23T01:26:44;15.23;;;4.93;;
24483;SDS011;12643;51.620;7.548;2024-03-23T01:29:13;12.48;;;4.07;;
24483;SDS011;12643;51.620;7.548;2024-03-23T01:31:40;14.35;;;4.15;;
24483;SDS011;12643;51.620;7.548;2024-03-23T01:34:08;19.08;;;4.97;;
24483;SDS011;12643;51.620;7.548;2024-03-23T01:36:35;11.23;;;4.05;;
24483;SDS011;12643;51.620;7.548;2024-03-23T01:39:04;17.05;;;4.22;;
24483;SDS011;12643;51.620;7.548;2024-03-23T01:41:31;14.30;;;4.10;;
24483;SDS011;12643;51.620;7.548;2024-03-23T01:43:59;16.75;;;5.32;;
24483;SDS011;12643;51.620;7.548;2024-03-23T01:46:32;14.77;;;4.20;;
24483;SDS011;12643;51.620;7.548;2024-03-23T01:49:00;10.95;;;4.22;;
24483;SDS011;12643;51.620;7.548;2024-03-23T01:51:27;17.10;;;4.90;;
24483;SDS011;12643;51.620;7.548;2024-03-23T01:53:56;12.98;;;4.85;;
24483;SDS011;12643;51.620;7.548;2024-03-23T01:56:26;19.85;;;4.15;;
24483;SDS011;12643;51.620;7.548;2024-03-23T01:58:54;13.48;;;4.68;;
24483;SDS011;12643;51.620;7.548;2024-03-23T02:01:20;14.95;;;4.10;;
24483;SDS011;12643;51.620;7.548;2024-03-23T02:03:50;20.60;;;4.72;;
24483;SDS011;12643;51.620;7.548;2024-03-23T02:06:17;12.88;;;5.03;;
24483;SDS011;12643;51.620;7.548;2024-03-23T02:08:44;20.08;;;5.07;;
24483;SDS011;12643;51.620;7.548;2024-03-23T02:11:11;14.55;;;5.20;;
24483;SDS011;12643;51.620;7.548;2024-03-23T02:13:39;14.45;;;4.50;;
24483;SDS011;12643;51.620;7.548;2024-03-23T02:16:06;15.55;;;4.22;;
24483;SDS011;12643;51.620;7.548;2024-03-23T02:18:34;15.73;;;4.35;;
24483;SDS011;12643;51.620;7.548;2024-03-23T02:21:02;15.43;;;4.80;;
24483;SDS011;12643;51.620;7.548;2024-03-23T02:23:32;14.27;;;3.70;;
24483;SDS011;12643;51.620;7.548;2024-03-23T02:25:59;12.90;;;3.33;;
24483;SDS011;12643;51.620;7.548;2024-03-23T02:28:27;12.00;;;4.53;;
24483;SDS011;12643;51.620;7.548;2024-03-23T02:30:54;7.97;;;2.97;;
24483;SDS011;12643;51.620;7.548;2024-03-23T02:33:21;7.07;;;3.60;;
24483;SDS011;12643;51.620;7.548;2024-03-23T02:35:49;13.77;;;3.25;;
24483;SDS011;12643;51.620;7.548;2024-03-23T02:38:17;14.35;;;4.13;;
24483;SDS011;12643;51.620;7.548;2024-03-23T02:40:45;11.50;;;3.08;;
24483;SDS011;12643;51.620;7.548;2024-03-23T02:43:13;14.25;;;2.80;;
24483;SDS011;12643;51.620;7.548;2024-03-23T02:45:39;9.77;;;3.10;;
24483;SDS011;12643;51.620;7.548;2024-03-23T02:48:07;9.30;;;3.80;;
24483;SDS011;12643;51.620;7.548;2024-03-23T02:50:34;11.07;;;3.33;;
24483;SDS011;12643;51.620;7.548;2024-03-23T02:53:02;11.95;;;3.80;;
24483;SDS011;12643;51.620;7.548;2024-03-23T02:55:29;12.10;;;3.33;;
24483;SDS011;12643;51.620;7.548;2024-03-23T02:57:58;13.70;;;3.58;;
24483;SDS011;12643;51.620;7.548;2024-03-23T03:00:27;12.25;;;3.80;;
24483;SDS011;12643;51.620;7.548;2024-03-23T03:02:55;9.85;;;3.67;;
24483;SDS011;12643;51.620;7.548;2024-03-23T03:05:22;8.70;;;3.25;;
24483;SDS011;12643;51.620;7.548;2024-03-23T03:07:50;16.25;;;4.20;;
24483;SDS011;12643;51.620;7.548;2024-03-23T03:10:17;14.15;;;3.53;;
24483;SDS011;12643;51.620;7.548;2024-03-23T03:12:45;16.55;;;3.47;;
24483;SDS011;12643;51.620;7.548;2024-03-23T03:15:13;13.68;;;3.38;;
24483;SDS011;12643;51.620;7.548;2024-03-23T03:17:41;8.75;;;3.30;;
24483;SDS011;12643;51.620;7.548;2024-03-23T03:20:08;12.57;;;3.15;;
24483;SDS011;12643;51.620;7.548;2024-03-23T03:22:39;12.85;;;3.90;;
24483;SDS011;12643;51.620;7.548;2024-03-23T03:25:06;12.13;;;3.47;;
24483;SDS011;12643;51.620;7.548;2024-03-23T03:27:34;12.20;;;3.45;;
24483;SDS011;12643;51.620;7.548;2024-03-23T03:30:00;13.52;;;2.97;;
24483;SDS011;12643;51.620;7.548;2024-03-23T03:32:33;10.95;;;3.55;;
24483;SDS011;12643;51.620;7.548;2024-03-23T03:35:00;12.05;;;3.85;;
24483;SDS011;12643;51.620;7.548;2024-03-23T03:37:30;9.05;;;2.97;;
24483;SDS011;12643;51.620;7.548;2024-03-23T03:39:57;13.15;;;3.90;;
24483;SDS011;12643;51.620;7.548;2024-03-23T03:42:25;12.43;;;3.67;;
24483;SDS011;12643;51.620;7.548;2024-03-23T03:44:52;11.10;;;3.50;;
24483;SDS011;12643;51.620;7.548;2024-03-23T03:47:20;16.10;;;3.80;;
24483;SDS011;12643;51.620;7.548;2024-03-23T03:49:48;12.02;;;3.15;;
24483;SDS011;12643;51.620;7.548;2024-03-23T03:52:16;13.00;;;3.45;;
24483;SDS011;12643;51.620;7.548;2024-03-23T03:54:43;13.38;;;3.25;;
24483;SDS011;12643;51.620;7.548;2024-03-23T03:57:10;11.73;;;2.97;;
24483;SDS011;12643;51.620;7.548;2024-03-23T03:59:37;9.50;;;3.08;;
24483;SDS011;12643;51.620;7.548;2024-03-23T04:02:05;14.30;;;4.32;;
24483;SDS011;12643;51.620;7.548;2024-03-23T04:04:32;9.57;;;2.88;;
24483;SDS011;12643;51.620;7.548;2024-03-23T04:07:01;12.13;;;3.40;;
24483;SDS011;12643;51.620;7.548;2024-03-23T04:09:30;9.80;;;3.40;;
24483;SDS011;12643;51.620;7.548;2024-03-23T04:11:58;13.93;;;2.83;;
24483;SDS011;12643;51.620;7.548;2024-03-23T04:14:25;12.27;;;2.90;;
24483;SDS011;12643;51.620;7.548;2024-03-23T04:16:53;14.20;;;3.53;;
24483;SDS011;12643;51.620;7.548;2024-03-23T04:19:20;9.55;;;2.65;;
24483;SDS011;12643;51.620;7.548;2024-03-23T04:21:48;13.13;;;3.47;;
24483;SDS011;12643;51.620;7.548;2024-03-23T04:24:16;17.75;;;3.05;;
24483;SDS011;12643;51.620;7.548;2024-03-23T04:26:46;14.15;;;3.40;;
24483;SDS011;12643;51.620;7.548;2024-03-23T04:29:13;17.10;;;3.45;;
24483;SDS011;12643;51.620;7.548;2024-03-23T04:31:41;11.55;;;3.70;;
24483;SDS011;12643;51.620;7.548;2024-03-23T04:34:08;10.55;;;2.92;;
24483;SDS011;12643;51.620;7.548;2024-03-23T04:36:36;10.00;;;3.65;;
24483;SDS011;12643;51.620;7.548;2024-03-23T04:39:03;15.77;;;3.75;;
24483;SDS011;12643;51.620;7.548;2024-03-23T04:41:35;10.65;;;3.40;;
24483;SDS011;12643;51.620;7.548;2024-03-23T04:44:03;10.93;;;3.20;;
24483;SDS011;12643;51.620;7.548;2024-03-23T04:46:31;16.10;;;4.13;;
24483;SDS011;12643;51.620;7.548;2024-03-23T04:48:58;11.95;;;3.83;;
24483;SDS011;12643;51.620;7.548;2024-03-23T04:51:25;23.40;;;4.53;;
24483;SDS011;12643;51.620;7.548;2024-03-23T04:53:53;17.33;;;4.07;;
24483;SDS011;12643;51.620;7.548;2024-03-23T04:56:21;13.77;;;3.58;;
24483;SDS011;12643;51.620;7.548;2024-03-23T04:58:49;14.52;;;4.18;;
24483;SDS011;12643;51.620;7.548;2024-03-23T05:01:17;12.52;;;3.70;;
24483;SDS011;12643;51.620;7.548;2024-03-23T05:03:44;12.55;;;3.53;;
24483;SDS011;12643;51.620;7.548;2024-03-23T05:06:12;15.80;;;3.35;;
24483;SDS011;12643;51.620;7.548;2024-03-23T05:08:38;11.40;;;3.47;;
24483;SDS011;12643;51.620;7.548;2024-03-23T05:11:06;16.80;;;3.58;;
24483;SDS011;12643;51.620;7.548;2024-03-23T05:13:33;15.32;;;3.85;;
24483;SDS011;12643;51.620;7.548;2024-03-23T05:16:02;14.50;;;3.10;;
24483;SDS011;12643;51.620;7.548;2024-03-23T05:18:30;18.50;;;4.75;;
24483;SDS011;12643;51.620;7.548;2024-03-23T05:20:58;12.68;;;4.25;;
24483;SDS011;12643;51.620;7.548;2024-03-23T05:23:25;13.20;;;3.35;;
24483;SDS011;12643;51.620;7.548;2024-03-23T05:25:54;16.33;;;5.40;;
24483;SDS011;12643;51.620;7.548;2024-03-23T05:28:21;19.55;;;4.05;;
24483;SDS011;12643;51.620;7.548;2024-03-23T05:30:52;17.10;;;4.38;;
24483;SDS011;12643;51.620;7.548;2024-03-23T05:33:25;18.58;;;4.03;;
24483;SDS011;12643;51.620;7.548;2024-03-23T05:35:56;14.38;;;4.32;;
24483;SDS011;12643;51.620;7.548;2024-03-23T05:38:23;15.88;;;4.07;;
24483;SDS011;12643;51.620;7.548;2024-03-23T05:40:55;25.02;;;4.88;;
24483;SDS011;12643;51.620;7.548;2024-03-23T05:43:22;11.77;;;4.22;;
24483;SDS011;12643;51.620;7.548;2024-03-23T05:45:53;15.35;;;4.85;;
24483;SDS011;12643;51.620;7.548;2024-03-23T05:48:20;9.82;;;4.22;;
24483;SDS011;12643;51.620;7.548;2024-03-23T05:50:49;15.52;;;5.20;;
24483;SDS011;12643;51.620;7.548;2024-03-23T05:53:16;18.50;;;6.80;;
24483;SDS011;12643;51.620;7.548;2024-03-23T05:55:45;26.35;;;6.50;;
24483;SDS011;12643;51.620;7.548;2024-03-23T05:58:14;22.52;;;7.05;;
24483;SDS011;12643;51.620;7.548;2024-03-23T06:00:42;22.15;;;8.57;;
24483;SDS011;12643;51.620;7.548;2024-03-23T06:03:09;21.45;;;7.65;;
24483;SDS011;12643;51.620;7.548;2024-03-23T06:05:37;25.33;;;9.38;;
24483;SDS011;12643;51.620;7.548;2024-03-23T06:08:06;24.40;;;10.02;;
24483;SDS011;12643;51.620;7.548;2024-03-23T06:10:35;25.40;;;9.37;;
24483;SDS011;12643;51.620;7.548;2024-03-23T06:13:02;26.08;;;10.43;;
24483;SDS011;12643;51.620;7.548;2024-03-23T06:15:30;19.63;;;9.63;;
24483;SDS011;12643;51.620;7.548;2024-03-23T06:17:57;22.35;;;10.57;;
24483;SDS011;12643;51.620;7.548;2024-03-23T06:20:25;30.33;;;11.70;;
24483;SDS011;12643;51.620;7.548;2024-03-23T06:22:52;29.75;;;11.63;;
24483;SDS011;12643;51.620;7.548;2024-03-23T06:25:21;27.67;;;11.50;;
24483;SDS011;12643;51.620;7.548;2024-03-23T06:27:48;24.13;;;11.63;;
24483;SDS011;12643;51.620;7.548;2024-03-23T06:30:15;21.35;;;10.57;;
24483;SDS011;12643;51.620;7.548;2024-03-23T06:32:42;34.88;;;11.40;;
24483;SDS011;12643;51.620;7.548;2024-03-23T06:35:10;24.80;;;11.00;;
24483;SDS011;12643;51.620;7.548;2024-03-23T06:37:37;27.50;;;11.23;;
24483;SDS011;12643;51.620;7.548;2024-03-23T06:40:06;22.15;;;12.00;;
24483;SDS011;12643;51.620;7.548;2024-03-23T06:42:36;29.05;;;12.70;;
24483;SDS011;12643;51.620;7.548;2024-03-23T06:45:05;31.33;;;12.18;;
24483;SDS011;12643;51.620;7.548;2024-03-23T06:47:32;31.48;;;13.13;;
24483;SDS011;12643;51.620;7.548;2024-03-23T06:50:00;31.73;;;14.05;;
24483;SDS011;12643;51.620;7.548;2024-03-23T06:52:29;30.00;;;14.90;;
24483;SDS011;12643;51.620;7.548;2024-03-23T06:54:57;42.90;;;16.30;;
24483;SDS011;12643;51.620;7.548;2024-03-23T06:57:24;31.52;;;14.93;;
24483;SDS011;12643;51.620;7.548;2024-03-23T06:59:53;33.53;;;15.27;;
24483;SDS011;12643;51.620;7.548;2024-03-23T07:02:20;32.78;;;17.42;;
24483;SDS011;12643;51.620;7.548;2024-03-23T07:04:48;39.08;;;16.50;;
24483;SDS011;12643;51.620;7.548;2024-03-23T07:07:15;30.73;;;15.93;;
24483;SDS011;12643;51.620;7.548;2024-03-23T07:09:43;39.70;;;17.50;;
24483;SDS011;12643;51.620;7.548;2024-03-23T07:12:10;37.72;;;16.98;;
24483;SDS011;12643;51.620;7.548;2024-03-23T07:14:37;32.40;;;16.23;;
24483;SDS011;12643;51.620;7.548;2024-03-23T07:17:06;36.03;;;16.85;;
24483;SDS011;12643;51.620;7.548;2024-03-23T07:19:34;37.00;;;17.73;;
24483;SDS011;12643;51.620;7.548;2024-03-23T07:22:01;34.03;;;15.43;;
24483;SDS011;12643;51.620;7.548;2024-03-23T07:24:29;30.05;;;15.85;;
24483;SDS011;12643;51.620;7.548;2024-03-23T07:26:56;30.27;;;14.95;;
24483;SDS011;12643;51.620;7.548;2024-03-23T07:29:24;30.45;;;14.93;;
24483;SDS011;12643;51.620;7.548;2024-03-23T07:31:51;32.05;;;14.63;;
24483;SDS011;12643;51.620;7.548;2024-03-23T07:34:20;23.33;;;13.15;;
24483;SDS011;12643;51.620;7.548;2024-03-23T07:36:47;29.20;;;13.35;;
24483;SDS011;12643;51.620;7.548;2024-03-23T07:39:18;22.35;;;13.18;;
24483;SDS011;12643;51.620;7.548;2024-03-23T07:41:44;26.00;;;12.63;;
24483;SDS011;12643;51.620;7.548;2024-03-23T07:44:12;25.10;;;11.73;;
24483;SDS011;12643;51.620;7.548;2024-03-23T07:46:39;26.00;;;10.95;;
24483;SDS011;12643;51.620;7.548;2024-03-23T07:49:07;31.02;;;10.95;;
24483;SDS011;12643;51.620;7.548;2024-03-23T07:51:35;25.38;;;10.95;;
24483;SDS011;12643;51.620;7.548;2024-03-23T07:54:05;24.38;;;10.68;;
24483;SDS011;12643;51.620;7.548;2024-03-23T07:56:32;29.23;;;12.80;;
24483;SDS011;12643;51.620;7.548;2024-03-23T07:59:00;26.45;;;11.07;;
24483;SDS011;12643;51.620;7.548;2024-03-23T08:01:29;25.33;;;11.90;;
24483;SDS011;12643;51.620;7.548;2024-03-23T08:03:57;31.02;;;11.88;;
24483;SDS011;12643;51.620;7.548;2024-03-23T08:06:23;30.63;;;11.38;;
24483;SDS011;12643;51.620;7.548;2024-03-23T08:08:54;30.83;;;12.23;;
24483;SDS011;12643;51.620;7.548;2024-03-23T08:11:25;28.52;;;10.48;;
24483;SDS011;12643;51.620;7.548;2024-03-23T08:13:53;24.95;;;11.82;;
24483;SDS011;12643;51.620;7.548;2024-03-23T08:16:20;26.17;;;11.27;;
24483;SDS011;12643;51.620;7.548;2024-03-23T08:18:48;28.45;;;9.95;;
24483;SDS011;12643;51.620;7.548;2024-03-23T08:21:16;20.48;;;9.05;;
24483;SDS011;12643;51.620;7.548;2024-03-23T08:23:44;22.10;;;9.63;;
24483;SDS011;12643;51.620;7.548;2024-03-23T08:26:14;26.98;;;8.73;;
24483;SDS011;12643;51.620;7.548;2024-03-23T08:28:43;21.58;;;7.82;;
24483;SDS011;12643;51.620;7.548;2024-03-23T08:31:11;21.98;;;7.97;;
24483;SDS011;12643;51.620;7.548;2024-03-23T08:33:40;25.55;;;7.10;;
24483;SDS011;12643;51.620;7.548;2024-03-23T08:36:09;23.15;;;6.72;;
24483;SDS011;12643;51.620;7.548;2024-03-23T08:38:39;24.05;;;6.05;;
24483;SDS011;12643;51.620;7.548;2024-03-23T08:41:07;16.98;;;6.00;;
24483;SDS011;12643;51.620;7.548;2024-03-23T08:43:38;18.73;;;5.90;;
24483;SDS011;12643;51.620;7.548;2024-03-23T08:46:05;22.02;;;7.57;;
24483;SDS011;12643;51.620;7.548;2024-03-23T08:48:35;19.85;;;7.00;;
24483;SDS011;12643;51.620;7.548;2024-03-23T08:51:03;16.88;;;6.13;;
24483;SDS011;12643;51.620;7.548;2024-03-23T08:53:32;15.27;;;5.32;;
24483;SDS011;12643;51.620;7.548;2024-03-23T08:56:00;17.75;;;4.93;;
24483;SDS011;12643;51.620;7.548;2024-03-23T08:58:30;16.15;;;5.20;;
24483;SDS011;12643;51.620;7.548;2024-03-23T09:01:03;20.40;;;5.90;;
24483;SDS011;12643;51.620;7.548;2024-03-23T09:03:35;20.40;;;5.78;;
24483;SDS011;12643;51.620;7.548;2024-03-23T09:06:06;19.05;;;6.10;;
24483;SDS011;12643;51.620;7.548;2024-03-23T09:08:34;18.13;;;5.63;;
24483;SDS011;12643;51.620;7.548;2024-03-23T09:11:03;20.45;;;6.15;;
24483;SDS011;12643;51.620;7.548;2024-03-23T09:13:32;26.40;;;6.73;;
24483;SDS011;12643;51.620;7.548;2024-03-23T09:15:59;15.88;;;5.32;;
24483;SDS011;12643;51.620;7.548;2024-03-23T09:18:31;14.65;;;5.20;;
24483;SDS011;12643;51.620;7.548;2024-03-23T09:20:58;20.30;;;5.32;;
24483;SDS011;12643;51.620;7.548;2024-03-23T09:23:26;19.83;;;6.95;;
24483;SDS011;12643;51.620;7.548;2024-03-23T09:25:52;24.38;;;6.10;;
24483;SDS011;12643;51.620;7.548;2024-03-23T09:28:20;14.10;;;5.25;;
24483;SDS011;12643;51.620;7.548;2024-03-23T09:30:47;17.60;;;5.32;;
24483;SDS011;12643;51.620;7.548;2024-03-23T09:33:15;14.07;;;4.72;;
24483;SDS011;12643;51.620;7.548;2024-03-23T09:35:44;17.00;;;4.60;;
24483;SDS011;12643;51.620;7.548;2024-03-23T09:38:12;19.92;;;5.60;;
24483;SDS011;12643;51.620;7.548;2024-03-23T09:40:40;9.23;;;4.03;;
24483;SDS011;12643;51.620;7.548;2024-03-23T09:43:08;18.77;;;4.10;;
24483;SDS011;12643;51.620;7.548;2024-03-23T09:45:36;18.33;;;4.53;;
24483;SDS011;12643;51.620;7.548;2024-03-23T09:48:06;14.90;;;4.28;;
24483;SDS011;12643;51.620;7.548;2024-03-23T09:50:35;24.88;;;5.07;;
24483;SDS011;12643;51.620;7.548;2024-03-23T09:53:05;19.30;;;4.20;;
24483;SDS011;12643;51.620;7.548;2024-03-23T09:55:33;14.23;;;4.13;;
24483;SDS011;12643;51.620;7.548;2024-03-23T09:58:02;17.60;;;4.43;;
24483;SDS011;12643;51.620;7.548;2024-03-23T10:00:30;20.58;;;3.78;;
24483;SDS011;12643;51.620;7.548;2024-03-23T10:02:57;19.75;;;4.60;;
24483;SDS011;12643;51.620;7.548;2024-03-23T10:05:28;11.55;;;3.58;;
24483;SDS011;12643;51.620;7.548;2024-03-23T10:07:57;10.60;;;3.58;;
24483;SDS011;12643;51.620;7.548;2024-03-23T10:10:26;13.82;;;2.80;;
24483;SDS011;12643;51.620;7.548;2024-03-23T10:12:52;6.82;;;2.42;;
24483;SDS011;12643;51.620;7.548;2024-03-23T10:15:21;10.07;;;3.05;;
24483;SDS011;12643;51.620;7.548;2024-03-23T10:17:49;9.50;;;2.47;;
24483;SDS011;12643;51.620;7.548;2024-03-23T10:20:19;9.80;;;2.78;;
24483;SDS011;12643;51.620;7.548;2024-03-23T10:22:46;8.63;;;2.95;;
24483;SDS011;12643;51.620;7.548;2024-03-23T10:25:15;10.75;;;2.55;;
24483;SDS011;12643;51.620;7.548;2024-03-23T10:27:43;13.40;;;3.25;;
24483;SDS011;12643;51.620;7.548;2024-03-23T10:30:21;14.05;;;2.60;;
24483;SDS011;12643;51.620;7.548;2024-03-23T10:35:33;5.78;;;2.10;;
24483;SDS011;12643;51.620;7.548;2024-03-23T10:38:00;6.95;;;2.17;;
24483;SDS011;12643;51.620;7.548;2024-03-23T10:40:28;7.95;;;2.00;;
24483;SDS011;12643;51.620;7.548;2024-03-23T10:42:58;10.70;;;2.47;;
24483;SDS011;12643;51.620;7.548;2024-03-23T10:45:25;10.05;;;2.40;;
24483;SDS011;12643;51.620;7.548;2024-03-23T10:47:53;11.68;;;2.65;;
24483;SDS011;12643;51.620;7.548;2024-03-23T10:50:21;7.15;;;2.08;;
24483;SDS011;12643;51.620;7.548;2024-03-23T10:52:48;6.78;;;2.22;;
24483;SDS011;12643;51.620;7.548;2024-03-23T10:55:17;9.93;;;2.85;;
24483;SDS011;12643;51.620;7.548;2024-03-23T10:57:45;7.25;;;3.08;;
24483;SDS011;12643;51.620;7.548;2024-03-23T11:00:19;8.80;;;3.05;;
24483;SDS011;12643;51.620;7.548;2024-03-23T11:02:47;14.05;;;3.42;;
24483;SDS011;12643;51.620;7.548;2024-03-23T11:05:28;6.38;;;2.67;;
24483;SDS011;12643;51.620;7.548;2024-03-23T11:07:55;5.82;;;2.00;;
24483;SDS011;12643;51.620;7.548;2024-03-23T11:10:26;11.45;;;2.65;;
24483;SDS011;12643;51.620;7.548;2024-03-23T11:12:55;8.30;;;2.67;;
24483;SDS011;12643;51.620;7.548;2024-03-23T11:15:24;8.73;;;2.17;;
24483;SDS011;12643;51.620;7.548;2024-03-23T11:18:03;6.72;;;2.10;;
24483;SDS011;12643;51.620;7.548;2024-03-23T11:20:33;5.25;;;1.70;;
24483;SDS011;12643;51.620;7.548;2024-03-23T11:23:00;6.70;;;1.98;;
24483;SDS011;12643;51.620;7.548;2024-03-23T11:25:29;10.52;;;2.53;;
24483;SDS011;12643;51.620;7.548;2024-03-23T11:27:57;7.63;;;1.80;;
24483;SDS011;12643;51.620;7.548;2024-03-23T11:30:37;5.50;;;1.80;;
24483;SDS011;12643;51.620;7.548;2024-03-23T11:33:04;5.45;;;1.58;;
24483;SDS011;12643;51.620;7.548;2024-03-23T11:35:32;5.55;;;1.70;;
24483;SDS011;12643;51.620;7.548;2024-03-23T11:38:06;5.60;;;1.40;;
24483;SDS011;12643;51.620;7.548;2024-03-23T11:40:35;4.95;;;1.40;;
24483;SDS011;12643;51.620;7.548;2024-03-23T11:43:07;5.00;;;2.22;;
24483;SDS011;12643;51.620;7.548;2024-03-23T11:45:38;4.85;;;2.22;;
24483;SDS011;12643;51.620;7.548;2024-03-23T11:48:07;7.53;;;2.78;;
24483;SDS011;12643;51.620;7.548;2024-03-23T11:50:37;5.32;;;1.70;;
24483;SDS011;12643;51.620;7.548;2024-03-23T11:53:07;5.18;;;2.20;;
24483;SDS011;12643;51.620;7.548;2024-03-23T11:55:42;2.75;;;1.42;;
24483;SDS011;12643;51.620;7.548;2024-03-23T11:58:12;4.68;;;1.27;;
24483;SDS011;12643;51.620;7.548;2024-03-23T12:00:43;7.78;;;1.67;;
24483;SDS011;12643;51.620;7.548;2024-03-23T12:03:16;11.93;;;2.30;;
24483;SDS011;12643;51.620;7.548;2024-03-23T12:05:47;4.10;;;1.77;;
24483;SDS011;12643;51.620;7.548;2024-03-23T12:08:16;5.40;;;2.00;;
24483;SDS011;12643;51.620;7.548;2024-03-23T12:10:44;4.05;;;2.60;;
24483;SDS011;12643;51.620;7.548;2024-03-23T12:13:14;13.65;;;2.80;;
24483;SDS011;12643;51.620;7.548;2024-03-23T12:15:47;2.80;;;1.88;;
24483;SDS011;12643;51.620;7.548;2024-03-23T12:18:15;6.20;;;2.17;;
24483;SDS011;12643;51.620;7.548;2024-03-23T12:20:44;7.47;;;2.38;;
24483;SDS011;12643;51.620;7.548;2024-03-23T12:23:11;6.10;;;1.80;;
24483;SDS011;12643;51.620;7.548;2024-03-23T12:25:43;14.68;;;3.28;;
24483;SDS011;12643;51.620;7.548;2024-03-23T12:28:10;8.75;;;2.10;;
24483;SDS011;12643;51.620;7.548;2024-03-23T12:30:39;8.82;;;2.50;;
24483;SDS011;12643;51.620;7.548;2024-03-23T12:33:07;9.98;;;2.10;;
24483;SDS011;12643;51.620;7.548;2024-03-23T12:35:35;8.55;;;2.20;;
24483;SDS011;12643;51.620;7.548;2024-03-23T12:38:02;13.02;;;3.05;;
24483;SDS011;12643;51.620;7.548;2024-03-23T12:40:30;9.48;;;3.10;;
24483;SDS011;12643;51.620;7.548;2024-03-23T12:42:57;8.88;;;3.25;;
24483;SDS011;12643;51.620;7.548;2024-03-23T12:45:25;7.13;;;3.50;;
24483;SDS011;12643;51.620;7.548;2024-03-23T12:47:52;8.02;;;2.85;;
24483;SDS011;12643;51.620;7.548;2024-03-23T12:50:21;10.60;;;3.08;;
24483;SDS011;12643;51.620;7.548;2024-03-23T12:52:48;8.98;;;3.30;;
24483;SDS011;12643;51.620;7.548;2024-03-23T12:55:16;11.35;;;3.92;;
24483;SDS011;12643;51.620;7.548;2024-03-23T12:57:43;9.40;;;3.50;;
24483;SDS011;12643;51.620;7.548;2024-03-23T13:00:12;9.05;;;4.13;;
24483;SDS011;12643;51.620;7.548;2024-03-23T13:02:41;9.13;;;4.28;;
24483;SDS011;12643;51.620;7.548;2024-03-23T13:05:09;11.05;;;5.03;;
24483;SDS011;12643;51.620;7.548;2024-03-23T13:07:37;8.00;;;4.50;;
24483;SDS011;12643;51.620;7.548;2024-03-23T13:10:05;8.25;;;3.88;;
24483;SDS011;12643;51.620;7.548;2024-03-23T13:12:34;9.30;;;3.63;;
24483;SDS011;12643;51.620;7.548;2024-03-23T13:15:02;8.50;;;2.60;;
24483;SDS011;12643;51.620;7.548;2024-03-23T13:17:29;7.03;;;2.92;;
24483;SDS011;12643;51.620;7.548;2024-03-23T13:19:57;7.43;;;3.42;;
24483;SDS011;12643;51.620;7.548;2024-03-23T13:22:24;5.20;;;2.80;;
24483;SDS011;12643;51.620;7.548;2024-03-23T13:24:53;9.63;;;2.80;;
24483;SDS011;12643;51.620;7.548;2024-03-23T13:27:20;11.68;;;1.90;;
24483;SDS011;12643;51.620;7.548;2024-03-23T13:29:48;9.68;;;2.00;;
24483;SDS011;12643;51.620;7.548;2024-03-23T13:32:16;8.57;;;2.60;;
24483;SDS011;12643;51.620;7.548;2024-03-23T13:34:44;7.57;;;3.60;;
24483;SDS011;12643;51.620;7.548;2024-03-23T13:37:10;14.88;;;2.97;;
24483;SDS011;12643;51.620;7.548;2024-03-23T13:39:38;13.20;;;3.28;;
24483;SDS011;12643;51.620;7.548;2024-03-23T13:42:08;8.45;;;3.08;;
24483;SDS011;12643;51.620;7.548;2024-03-23T13:44:38;7.65;;;2.42;;
24483;SDS011;12643;51.620;7.548;2024-03-23T13:47:04;6.82;;;2.22;;
24483;SDS011;12643;51.620;7.548;2024-03-23T13:49:32;5.22;;;2.70;;
24483;SDS011;12643;51.620;7.548;2024-03-23T13:51:59;5.85;;;2.70;;
24483;SDS011;12643;51.620;7.548;2024-03-23T13:54:27;6.15;;;2.97;;
24483;SDS011;12643;51.620;7.548;2024-03-23T13:56:55;6.40;;;2.88;;
24483;SDS011;12643;51.620;7.548;2024-03-23T13:59:24;6.57;;;2.55;;
24483;SDS011;12643;51.620;7.548;2024-03-23T14:01:51;8.60;;;4.10;;
24483;SDS011;12643;51.620;7.548;2024-03-23T14:04:19;10.07;;;4.40;;
24483;SDS011;12643;51.620;7.548;2024-03-23T14:06:46;9.68;;;3.25;;
24483;SDS011;12643;51.620;7.548;2024-03-23T14:09:14;6.55;;;2.60;;
24483;SDS011;12643;51.620;7.548;2024-03-23T14:11:46;8.20;;;2.50;;
24483;SDS011;12643;51.620;7.548;2024-03-23T14:14:14;10.23;;;3.03;;
24483;SDS011;12643;51.620;7.548;2024-03-23T14:16:43;9.23;;;2.40;;
24483;SDS011;12643;51.620;7.548;2024-03-23T14:19:11;7.40;;;2.70;;
24483;SDS011;12643;51.620;7.548;2024-03-23T14:21:38;4.22;;;1.95;;
24483;SDS011;12643;51.620;7.548;2024-03-23T14:24:06;4.20;;;1.98;;
24483;SDS011;12643;51.620;7.548;2024-03-23T14:26:34;10.68;;;3.17;;
24483;SDS011;12643;51.620;7.548;2024-03-23T14:29:02;7.15;;;1.73;;
24483;SDS011;12643;51.620;7.548;2024-03-23T14:31:29;5.53;;;1.73;;
24483;SDS011;12643;51.620;7.548;2024-03-23T14:33:58;6.60;;;2.33;;
24483;SDS011;12643;51.620;7.548;2024-03-23T14:36:26;7.78;;;2.65;;
24483;SDS011;12643;51.620;7.548;2024-03-23T14:38:54;8.10;;;2.90;;
24483;SDS011;12643;51.620;7.548;2024-03-23T14:41:21;7.13;;;2.45;;
24483;SDS011;12643;51.620;7.548;2024-03-23T14:43:48;8.85;;;3.67;;
24483;SDS011;12643;51.620;7.548;2024-03-23T14:46:16;7.32;;;3.28;;
24483;SDS011;12643;51.620;7.548;2024-03-23T14:48:44;7.35;;;2.80;;
24483;SDS011;12643;51.620;7.548;2024-03-23T14:51:13;7.03;;;3.30;;
24483;SDS011;12643;51.620;7.548;2024-03-23T14:53:45;8.85;;;3.00;;
24483;SDS011;12643;51.620;7.548;2024-03-23T14:56:13;9.10;;;3.03;;
24483;SDS011;12643;51.620;7.548;2024-03-23T14:58:43;10.25;;;3.33;;
24483;SDS011;12643;51.620;7.548;2024-03-23T15:01:11;8.23;;;2.58;;
24483;SDS011;12643;51.620;7.548;2024-03-23T15:03:39;8.60;;;3.55;;
24483;SDS011;12643;51.620;7.548;2024-03-23T15:06:08;11.68;;;2.92;;
24483;SDS011;12643;51.620;7.548;2024-03-23T15:08:37;10.15;;;3.60;;
24483;SDS011;12643;51.620;7.548;2024-03-23T15:11:06;14.02;;;4.28;;
24483;SDS011;12643;51.620;7.548;2024-03-23T15:13:33;8.30;;;2.90;;
24483;SDS011;12643;51.620;7.548;2024-03-23T15:16:01;13.43;;;3.60;;
24483;SDS011;12643;51.620;7.548;2024-03-23T15:18:29;9.45;;;3.67;;
24483;SDS011;12643;51.620;7.548;2024-03-23T15:20:57;10.95;;;3.05;;
24483;SDS011;12643;51.620;7.548;2024-03-23T15:23:28;10.70;;;2.80;;
24483;SDS011;12643;51.620;7.548;2024-03-23T15:25:56;9.35;;;2.88;;
24483;SDS011;12643;51.620;7.548;2024-03-23T15:28:26;7.78;;;2.40;;
24483;SDS011;12643;51.620;7.548;2024-03-23T15:31:03;5.50;;;1.67;;
24483;SDS011;12643;51.620;7.548;2024-03-23T15:33:31;6.82;;;2.40;;
24483;SDS011;12643;51.620;7.548;2024-03-23T15:35:58;7.32;;;1.80;;
24483;SDS011;12643;51.620;7.548;2024-03-23T15:38:26;4.30;;;2.30;;